sensor_id;sensor_type;location;lat;lon;timestamp;temperature;humidity
67005;HTU21D;53920;51.094;5.902;2022-12-10T00:01:25;-1.09;78.22
67005;HTU21D;53920;51.094;5.902;2022-12-10T00:03:52;-1.13;78.24
67005;HTU21D;53920;51.094;5.902;2022-12-10T00:06:24;-1.15;78.25
67005;HTU21D;53920;51.094;5.902;2022-12-10T00:08:51;-1.17;78.40
67005;HTU21D;53920;51.094;5.902;2022-12-10T00:11:19;-1.18;78.66
67005;HTU21D;53920;51.094;5.902;2022-12-10T00:13:46;-1.17;79.08
67005;HTU21D;53920;51.094;5.902;2022-12-10T00:16:14;-1.12;79.14
67005;HTU21D;53920;51.094;5.902;2022-12-10T00:18:42;-1.12;79.20
67005;HTU21D;53920;51.094;5.902;2022-12-10T00:21:12;-1.14;79.16
67005;HTU21D;53920;51.094;5.902;2022-12-10T00:23:40;-1.15;79.17
67005;HTU21D;53920;51.094;5.902;2022-12-10T00:26:17;-1.17;79.27
67005;HTU21D;53920;51.094;5.902;2022-12-10T00:28:45;-1.17;79.24
67005;HTU21D;53920;51.094;5.902;2022-12-10T00:31:34;-1.17;79.28
67005;HTU21D;53920;51.094;5.902;2022-12-10T00:34:04;-1.14;79.46
67005;HTU21D;53920;51.094;5.902;2022-12-10T00:36:34;-1.14;79.42
67005;HTU21D;53920;51.094;5.902;2022-12-10T00:39:01;-1.14;79.32
67005;HTU21D;53920;51.094;5.902;2022-12-10T00:41:28;-1.16;79.25
67005;HTU21D;53920;51.094;5.902;2022-12-10T00:43:54;-1.18;79.36
67005;HTU21D;53920;51.094;5.902;2022-12-10T00:46:20;-1.18;79.15
67005;HTU21D;53920;51.094;5.902;2022-12-10T00:48:46;-1.20;78.88
67005;HTU21D;53920;51.094;5.902;2022-12-10T00:51:24;-1.25;78.88
67005;HTU21D;53920;51.094;5.902;2022-12-10T00:53:53;-1.26;78.80
67005;HTU21D;53920;51.094;5.902;2022-12-10T00:56:28;-1.27;78.85
67005;HTU21D;53920;51.094;5.902;2022-12-10T00:58:56;-1.27;78.59
67005;HTU21D;53920;51.094;5.902;2022-12-10T01:01:32;-1.28;78.88
67005;HTU21D;53920;51.094;5.902;2022-12-10T01:04:02;-1.26;79.18
67005;HTU21D;53920;51.094;5.902;2022-12-10T01:06:34;-1.23;79.08
67005;HTU21D;53920;51.094;5.902;2022-12-10T01:09:04;-1.20;78.95
67005;HTU21D;53920;51.094;5.902;2022-12-10T01:11:34;-1.24;79.08
67005;HTU21D;53920;51.094;5.902;2022-12-10T01:14:00;-1.24;79.00
67005;HTU21D;53920;51.094;5.902;2022-12-10T01:16:29;-1.27;78.82
67005;HTU21D;53920;51.094;5.902;2022-12-10T01:18:57;-1.29;78.70
67005;HTU21D;53920;51.094;5.902;2022-12-10T01:21:25;-1.32;78.78
67005;HTU21D;53920;51.094;5.902;2022-12-10T01:23:52;-1.33;79.03
67005;HTU21D;53920;51.094;5.902;2022-12-10T01:26:25;-1.31;79.16
67005;HTU21D;53920;51.094;5.902;2022-12-10T01:28:53;-1.24;79.01
67005;HTU21D;53920;51.094;5.902;2022-12-10T01:31:20;-1.05;78.62
67005;HTU21D;53920;51.094;5.902;2022-12-10T01:33:47;-0.91;78.43
67005;HTU21D;53920;51.094;5.902;2022-12-10T01:38:44;-0.62;77.84
67005;HTU21D;53920;51.094;5.902;2022-12-10T01:41:38;-0.45;77.35
67005;HTU21D;53920;51.094;5.902;2022-12-10T01:46:42;-0.19;76.72
67005;HTU21D;53920;51.094;5.902;2022-12-10T01:49:32;-0.10;76.50
67005;HTU21D;53920;51.094;5.902;2022-12-10T01:52:00;-0.00;76.32
67005;HTU21D;53920;51.094;5.902;2022-12-10T01:54:31;0.07;76.08
67005;HTU21D;53920;51.094;5.902;2022-12-10T01:57:04;0.12;76.22
67005;HTU21D;53920;51.094;5.902;2022-12-10T01:59:33;0.16;76.26
67005;HTU21D;53920;51.094;5.902;2022-12-10T02:02:12;0.27;75.92
67005;HTU21D;53920;51.094;5.902;2022-12-10T02:15:35;0.64;75.28
67005;HTU21D;53920;51.094;5.902;2022-12-10T02:18:18;0.73;75.04
67005;HTU21D;53920;51.094;5.902;2022-12-10T02:20:51;0.78;74.98
67005;HTU21D;53920;51.094;5.902;2022-12-10T02:23:26;0.84;74.94
67005;HTU21D;53920;51.094;5.902;2022-12-10T02:26:16;0.91;74.92
67005;HTU21D;53920;51.094;5.902;2022-12-10T02:31:32;1.06;74.42
67005;HTU21D;53920;51.094;5.902;2022-12-10T02:34:04;1.08;74.52
67005;HTU21D;53920;51.094;5.902;2022-12-10T02:36:38;1.13;74.38
67005;HTU21D;53920;51.094;5.902;2022-12-10T02:39:11;1.19;74.22
67005;HTU21D;53920;51.094;5.902;2022-12-10T02:41:52;1.23;74.09
67005;HTU21D;53920;51.094;5.902;2022-12-10T02:44:21;1.27;74.21
67005;HTU21D;53920;51.094;5.902;2022-12-10T02:46:55;1.34;74.32
67005;HTU21D;53920;51.094;5.902;2022-12-10T02:49:29;1.41;74.30
67005;HTU21D;53920;51.094;5.902;2022-12-10T02:52:08;1.46;74.36
67005;HTU21D;53920;51.094;5.902;2022-12-10T02:54:38;1.48;74.35
67005;HTU21D;53920;51.094;5.902;2022-12-10T02:57:24;1.46;74.58
67005;HTU21D;53920;51.094;5.902;2022-12-10T03:05:35;1.53;74.75
67005;HTU21D;53920;51.094;5.902;2022-12-10T03:08:34;1.56;74.57
67005;HTU21D;53920;51.094;5.902;2022-12-10T03:11:10;1.62;74.27
67005;HTU21D;53920;51.094;5.902;2022-12-10T03:16:34;1.76;73.82
67005;HTU21D;53920;51.094;5.902;2022-12-10T03:19:06;1.77;73.62
67005;HTU21D;53920;51.094;5.902;2022-12-10T03:21:35;1.78;73.54
67005;HTU21D;53920;51.094;5.902;2022-12-10T03:24:09;1.68;73.64
67005;HTU21D;53920;51.094;5.902;2022-12-10T03:26:38;1.58;73.86
67005;HTU21D;53920;51.094;5.902;2022-12-10T03:29:08;1.47;74.09
67005;HTU21D;53920;51.094;5.902;2022-12-10T03:31:38;1.46;74.24
67005;HTU21D;53920;51.094;5.902;2022-12-10T03:34:07;1.46;74.38
67005;HTU21D;53920;51.094;5.902;2022-12-10T03:36:39;1.47;74.21
67005;HTU21D;53920;51.094;5.902;2022-12-10T03:39:07;1.35;74.31
67005;HTU21D;53920;51.094;5.902;2022-12-10T03:41:34;1.31;74.64
67005;HTU21D;53920;51.094;5.902;2022-12-10T03:44:00;1.36;74.67
67005;HTU21D;53920;51.094;5.902;2022-12-10T03:46:29;1.37;74.39
67005;HTU21D;53920;51.094;5.902;2022-12-10T03:48:56;1.20;74.47
67005;HTU21D;53920;51.094;5.902;2022-12-10T03:51:22;1.08;74.84
67005;HTU21D;53920;51.094;5.902;2022-12-10T03:53:48;1.01;74.99
67005;HTU21D;53920;51.094;5.902;2022-12-10T03:56:19;1.02;75.15
67005;HTU21D;53920;51.094;5.902;2022-12-10T03:58:45;1.13;75.08
67005;HTU21D;53920;51.094;5.902;2022-12-10T04:01:12;1.23;74.74
67005;HTU21D;53920;51.094;5.902;2022-12-10T04:03:40;1.32;74.47
67005;HTU21D;53920;51.094;5.902;2022-12-10T04:06:10;1.36;74.34
67005;HTU21D;53920;51.094;5.902;2022-12-10T04:08:36;1.31;74.18
67005;HTU21D;53920;51.094;5.902;2022-12-10T04:11:04;1.24;74.50
67005;HTU21D;53920;51.094;5.902;2022-12-10T04:13:35;1.23;74.51
67005;HTU21D;53920;51.094;5.902;2022-12-10T04:16:21;1.22;74.55
67005;HTU21D;53920;51.094;5.902;2022-12-10T04:18:58;1.17;74.64
67005;HTU21D;53920;51.094;5.902;2022-12-10T04:21:25;1.18;74.67
67005;HTU21D;53920;51.094;5.902;2022-12-10T04:24:11;1.24;74.55
67005;HTU21D;53920;51.094;5.902;2022-12-10T04:26:58;1.25;74.55
67005;HTU21D;53920;51.094;5.902;2022-12-10T04:29:27;1.24;74.76
67005;HTU21D;53920;51.094;5.902;2022-12-10T04:31:54;1.32;74.66
67005;HTU21D;53920;51.094;5.902;2022-12-10T04:34:21;1.45;74.41
67005;HTU21D;53920;51.094;5.902;2022-12-10T04:36:48;1.56;74.06
67005;HTU21D;53920;51.094;5.902;2022-12-10T04:39:14;1.65;73.77
67005;HTU21D;53920;51.094;5.902;2022-12-10T04:41:43;1.67;73.68
67005;HTU21D;53920;51.094;5.902;2022-12-10T04:44:09;1.71;73.58
67005;HTU21D;53920;51.094;5.902;2022-12-10T04:46:35;1.76;73.49
67005;HTU21D;53920;51.094;5.902;2022-12-10T04:49:02;1.78;73.45
67005;HTU21D;53920;51.094;5.902;2022-12-10T04:51:29;1.71;73.45
67005;HTU21D;53920;51.094;5.902;2022-12-10T04:53:56;1.69;73.48
67005;HTU21D;53920;51.094;5.902;2022-12-10T04:56:22;1.53;73.53
67005;HTU21D;53920;51.094;5.902;2022-12-10T04:58:48;1.41;73.91
67005;HTU21D;53920;51.094;5.902;2022-12-10T05:01:14;1.29;74.09
67005;HTU21D;53920;51.094;5.902;2022-12-10T05:03:41;1.25;74.25
67005;HTU21D;53920;51.094;5.902;2022-12-10T05:06:11;1.23;74.44
67005;HTU21D;53920;51.094;5.902;2022-12-10T05:08:38;1.18;74.64
67005;HTU21D;53920;51.094;5.902;2022-12-10T05:11:07;1.19;74.82
67005;HTU21D;53920;51.094;5.902;2022-12-10T05:13:35;1.22;74.70
67005;HTU21D;53920;51.094;5.902;2022-12-10T05:16:03;1.16;75.03
67005;HTU21D;53920;51.094;5.902;2022-12-10T05:18:29;1.24;74.94
67005;HTU21D;53920;51.094;5.902;2022-12-10T05:21:01;1.21;74.95
67005;HTU21D;53920;51.094;5.902;2022-12-10T05:23:28;1.19;74.97
67005;HTU21D;53920;51.094;5.902;2022-12-10T05:26:03;1.13;75.16
67005;HTU21D;53920;51.094;5.902;2022-12-10T05:28:32;1.20;75.15
67005;HTU21D;53920;51.094;5.902;2022-12-10T05:30:59;1.25;75.05
67005;HTU21D;53920;51.094;5.902;2022-12-10T05:33:26;1.35;74.75
67005;HTU21D;53920;51.094;5.902;2022-12-10T05:35:58;1.37;74.79
67005;HTU21D;53920;51.094;5.902;2022-12-10T05:38:26;1.45;74.63
67005;HTU21D;53920;51.094;5.902;2022-12-10T05:40:53;1.48;74.65
67005;HTU21D;53920;51.094;5.902;2022-12-10T05:43:19;1.58;74.28
67005;HTU21D;53920;51.094;5.902;2022-12-10T05:45:45;1.58;74.17
67005;HTU21D;53920;51.094;5.902;2022-12-10T05:48:14;1.66;74.09
67005;HTU21D;53920;51.094;5.902;2022-12-10T05:50:41;1.75;73.87
67005;HTU21D;53920;51.094;5.902;2022-12-10T05:53:08;1.83;73.66
67005;HTU21D;53920;51.094;5.902;2022-12-10T05:55:34;1.91;73.25
67005;HTU21D;53920;51.094;5.902;2022-12-10T05:58:00;1.95;73.23
67005;HTU21D;53920;51.094;5.902;2022-12-10T06:00:27;1.99;73.02
67005;HTU21D;53920;51.094;5.902;2022-12-10T06:02:54;1.90;73.17
67005;HTU21D;53920;51.094;5.902;2022-12-10T06:05:21;1.84;73.31
67005;HTU21D;53920;51.094;5.902;2022-12-10T06:07:47;1.84;73.38
67005;HTU21D;53920;51.094;5.902;2022-12-10T06:10:14;1.85;73.35
67005;HTU21D;53920;51.094;5.902;2022-12-10T06:12:40;1.84;73.36
67005;HTU21D;53920;51.094;5.902;2022-12-10T06:15:06;1.76;73.38
67005;HTU21D;53920;51.094;5.902;2022-12-10T06:17:32;1.69;73.61
67005;HTU21D;53920;51.094;5.902;2022-12-10T06:19:58;1.67;73.86
67005;HTU21D;53920;51.094;5.902;2022-12-10T06:22:24;1.73;73.80
67005;HTU21D;53920;51.094;5.902;2022-12-10T06:24:50;1.79;73.58
67005;HTU21D;53920;51.094;5.902;2022-12-10T06:27:16;1.85;73.22
67005;HTU21D;53920;51.094;5.902;2022-12-10T06:29:44;1.86;73.23
67005;HTU21D;53920;51.094;5.902;2022-12-10T06:32:10;1.79;73.44
67005;HTU21D;53920;51.094;5.902;2022-12-10T06:34:36;1.71;73.65
67005;HTU21D;53920;51.094;5.902;2022-12-10T06:37:02;1.69;73.80
67005;HTU21D;53920;51.094;5.902;2022-12-10T06:39:28;1.72;73.83
67005;HTU21D;53920;51.094;5.902;2022-12-10T06:41:54;1.77;73.72
67005;HTU21D;53920;51.094;5.902;2022-12-10T06:44:19;1.75;73.49
67005;HTU21D;53920;51.094;5.902;2022-12-10T06:46:45;1.61;73.77
67005;HTU21D;53920;51.094;5.902;2022-12-10T06:49:12;1.58;74.05
67005;HTU21D;53920;51.094;5.902;2022-12-10T06:51:38;1.62;73.90
67005;HTU21D;53920;51.094;5.902;2022-12-10T06:54:04;1.62;74.00
67005;HTU21D;53920;51.094;5.902;2022-12-10T06:56:30;1.63;73.96
67005;HTU21D;53920;51.094;5.902;2022-12-10T06:58:56;1.52;73.99
67005;HTU21D;53920;51.094;5.902;2022-12-10T07:01:24;1.43;74.28
67005;HTU21D;53920;51.094;5.902;2022-12-10T07:03:55;1.40;74.41
67005;HTU21D;53920;51.094;5.902;2022-12-10T07:06:23;1.40;74.49
67005;HTU21D;53920;51.094;5.902;2022-12-10T07:08:50;1.41;74.50
67005;HTU21D;53920;51.094;5.902;2022-12-10T07:11:20;1.40;74.54
67005;HTU21D;53920;51.094;5.902;2022-12-10T07:13:47;1.33;74.74
67005;HTU21D;53920;51.094;5.902;2022-12-10T07:16:14;1.28;74.87
67005;HTU21D;53920;51.094;5.902;2022-12-10T07:18:40;1.28;75.09
67005;HTU21D;53920;51.094;5.902;2022-12-10T07:23:46;1.48;74.91
67005;HTU21D;53920;51.094;5.902;2022-12-10T07:26:13;1.60;74.60
67005;HTU21D;53920;51.094;5.902;2022-12-10T07:28:39;1.61;74.67
67005;HTU21D;53920;51.094;5.902;2022-12-10T07:31:07;1.60;74.51
67005;HTU21D;53920;51.094;5.902;2022-12-10T07:33:34;1.58;74.47
67005;HTU21D;53920;51.094;5.902;2022-12-10T07:36:04;1.58;74.71
67005;HTU21D;53920;51.094;5.902;2022-12-10T07:38:30;1.71;74.46
67005;HTU21D;53920;51.094;5.902;2022-12-10T07:40:56;1.58;74.41
67005;HTU21D;53920;51.094;5.902;2022-12-10T07:43:22;1.51;74.70
67005;HTU21D;53920;51.094;5.902;2022-12-10T07:45:48;1.52;74.70
67005;HTU21D;53920;51.094;5.902;2022-12-10T07:48:17;1.51;74.74
67005;HTU21D;53920;51.094;5.902;2022-12-10T07:50:43;1.55;74.64
67005;HTU21D;53920;51.094;5.902;2022-12-10T07:53:09;1.48;74.60
67005;HTU21D;53920;51.094;5.902;2022-12-10T07:55:34;1.43;74.64
67005;HTU21D;53920;51.094;5.902;2022-12-10T07:58:00;1.39;74.87
67005;HTU21D;53920;51.094;5.902;2022-12-10T08:00:26;1.42;74.89
67005;HTU21D;53920;51.094;5.902;2022-12-10T08:02:52;1.46;74.88
67005;HTU21D;53920;51.094;5.902;2022-12-10T08:05:18;1.46;74.91
67005;HTU21D;53920;51.094;5.902;2022-12-10T08:07:47;1.43;74.89
67005;HTU21D;53920;51.094;5.902;2022-12-10T08:10:13;1.48;74.96
67005;HTU21D;53920;51.094;5.902;2022-12-10T08:12:40;1.57;74.85
67005;HTU21D;53920;51.094;5.902;2022-12-10T08:15:06;1.64;74.57
67005;HTU21D;53920;51.094;5.902;2022-12-10T08:17:35;1.68;74.31
67005;HTU21D;53920;51.094;5.902;2022-12-10T08:20:01;1.69;74.18
67005;HTU21D;53920;51.094;5.902;2022-12-10T08:22:27;1.69;74.34
67005;HTU21D;53920;51.094;5.902;2022-12-10T08:24:53;1.73;74.10
67005;HTU21D;53920;51.094;5.902;2022-12-10T08:27:19;1.76;73.99
67005;HTU21D;53920;51.094;5.902;2022-12-10T08:29:45;1.85;73.81
67005;HTU21D;53920;51.094;5.902;2022-12-10T08:32:11;1.94;73.44
67005;HTU21D;53920;51.094;5.902;2022-12-10T08:34:37;1.99;73.16
67005;HTU21D;53920;51.094;5.902;2022-12-10T08:37:03;1.95;73.21
67005;HTU21D;53920;51.094;5.902;2022-12-10T08:39:30;1.92;73.27
67005;HTU21D;53920;51.094;5.902;2022-12-10T08:41:57;1.93;73.24
67005;HTU21D;53920;51.094;5.902;2022-12-10T08:44:23;1.86;73.37
67005;HTU21D;53920;51.094;5.902;2022-12-10T08:46:49;1.83;73.35
67005;HTU21D;53920;51.094;5.902;2022-12-10T08:49:15;1.72;73.33
67005;HTU21D;53920;51.094;5.902;2022-12-10T08:51:41;1.65;73.47
67005;HTU21D;53920;51.094;5.902;2022-12-10T08:54:07;1.63;73.76
67005;HTU21D;53920;51.094;5.902;2022-12-10T08:56:33;1.65;73.75
67005;HTU21D;53920;51.094;5.902;2022-12-10T08:58:59;1.72;73.52
67005;HTU21D;53920;51.094;5.902;2022-12-10T09:01:26;1.84;73.64
67005;HTU21D;53920;51.094;5.902;2022-12-10T09:03:52;1.85;73.22
67005;HTU21D;53920;51.094;5.902;2022-12-10T09:06:21;1.86;73.29
67005;HTU21D;53920;51.094;5.902;2022-12-10T09:08:47;1.85;73.15
67005;HTU21D;53920;51.094;5.902;2022-12-10T09:11:19;1.82;73.34
67005;HTU21D;53920;51.094;5.902;2022-12-10T09:13:46;1.88;73.31
67005;HTU21D;53920;51.094;5.902;2022-12-10T09:16:12;1.91;73.17
67005;HTU21D;53920;51.094;5.902;2022-12-10T09:18:40;1.93;73.13
67005;HTU21D;53920;51.094;5.902;2022-12-10T09:21:13;1.97;73.17
67005;HTU21D;53920;51.094;5.902;2022-12-10T09:23:41;2.11;73.04
67005;HTU21D;53920;51.094;5.902;2022-12-10T09:26:13;2.32;72.77
67005;HTU21D;53920;51.094;5.902;2022-12-10T09:28:41;2.44;72.04
67005;HTU21D;53920;51.094;5.902;2022-12-10T09:31:09;2.52;71.80
67005;HTU21D;53920;51.094;5.902;2022-12-10T09:33:36;2.66;71.29
67005;HTU21D;53920;51.094;5.902;2022-12-10T09:36:07;2.76;71.16
67005;HTU21D;53920;51.094;5.902;2022-12-10T09:38:35;2.69;70.87
67005;HTU21D;53920;51.094;5.902;2022-12-10T09:46:53;2.37;71.29
67005;HTU21D;53920;51.094;5.902;2022-12-10T09:49:47;2.38;71.32
67005;HTU21D;53920;51.094;5.902;2022-12-10T09:52:19;2.29;71.48
67005;HTU21D;53920;51.094;5.902;2022-12-10T09:55:02;2.24;71.71
67005;HTU21D;53920;51.094;5.902;2022-12-10T09:57:38;2.32;71.77
67005;HTU21D;53920;51.094;5.902;2022-12-10T10:02:44;2.52;71.13
67005;HTU21D;53920;51.094;5.902;2022-12-10T10:05:17;2.58;70.80
67005;HTU21D;53920;51.094;5.902;2022-12-10T10:07:49;2.57;70.76
67005;HTU21D;53920;51.094;5.902;2022-12-10T10:10:30;2.58;70.68
67005;HTU21D;53920;51.094;5.902;2022-12-10T10:15:42;2.40;71.06
67005;HTU21D;53920;51.094;5.902;2022-12-10T10:18:38;2.35;71.13
67005;HTU21D;53920;51.094;5.902;2022-12-10T10:21:17;2.39;70.95
67005;HTU21D;53920;51.094;5.902;2022-12-10T10:23:45;2.35;71.11
67005;HTU21D;53920;51.094;5.902;2022-12-10T10:26:12;2.38;71.29
67005;HTU21D;53920;51.094;5.902;2022-12-10T10:28:41;2.50;71.26
67005;HTU21D;53920;51.094;5.902;2022-12-10T10:31:20;2.71;70.88
67005;HTU21D;53920;51.094;5.902;2022-12-10T10:33:58;2.84;70.48
67005;HTU21D;53920;51.094;5.902;2022-12-10T10:36:28;2.94;70.26
67005;HTU21D;53920;51.094;5.902;2022-12-10T10:38:56;2.95;70.16
67005;HTU21D;53920;51.094;5.902;2022-12-10T10:41:24;3.06;70.00
67005;HTU21D;53920;51.094;5.902;2022-12-10T10:43:59;3.08;69.66
67005;HTU21D;53920;51.094;5.902;2022-12-10T10:46:27;2.86;69.94
67005;HTU21D;53920;51.094;5.902;2022-12-10T10:49:13;2.73;70.41
67005;HTU21D;53920;51.094;5.902;2022-12-10T10:51:44;2.69;70.68
67005;HTU21D;53920;51.094;5.902;2022-12-10T10:54:37;2.78;70.97
67005;HTU21D;53920;51.094;5.902;2022-12-10T10:59:45;3.18;70.35
67005;HTU21D;53920;51.094;5.902;2022-12-10T11:02:25;3.45;69.71
67005;HTU21D;53920;51.094;5.902;2022-12-10T11:04:56;3.62;68.97
67005;HTU21D;53920;51.094;5.902;2022-12-10T11:07:34;3.57;68.66
67005;HTU21D;53920;51.094;5.902;2022-12-10T11:10:03;3.42;68.80
67005;HTU21D;53920;51.094;5.902;2022-12-10T11:12:38;3.23;69.26
67005;HTU21D;53920;51.094;5.902;2022-12-10T11:17:53;3.32;69.30
67005;HTU21D;53920;51.094;5.902;2022-12-10T11:20:41;3.23;69.15
67005;HTU21D;53920;51.094;5.902;2022-12-10T11:23:13;2.95;69.67
67005;HTU21D;53920;51.094;5.902;2022-12-10T11:26:20;2.81;70.07
67005;HTU21D;53920;51.094;5.902;2022-12-10T11:37:49;2.59;71.07
67005;HTU21D;53920;51.094;5.902;2022-12-10T11:46:12;2.57;71.12
67005;HTU21D;53920;51.094;5.902;2022-12-10T11:54:51;2.60;71.23
67005;HTU21D;53920;51.094;5.902;2022-12-10T12:00:21;2.78;71.03
67005;HTU21D;53920;51.094;5.902;2022-12-10T12:08:30;3.27;70.32
67005;HTU21D;53920;51.094;5.902;2022-12-10T12:16:58;3.83;68.77
67005;HTU21D;53920;51.094;5.902;2022-12-10T12:19:43;4.04;68.27
67005;HTU21D;53920;51.094;5.902;2022-12-10T12:22:21;4.17;67.79
67005;HTU21D;53920;51.094;5.902;2022-12-10T12:24:57;4.36;67.18
67005;HTU21D;53920;51.094;5.902;2022-12-10T12:30:17;4.17;67.11
67005;HTU21D;53920;51.094;5.902;2022-12-10T12:36:00;3.89;67.37
67005;HTU21D;53920;51.094;5.902;2022-12-10T12:38:43;3.85;67.60
67005;HTU21D;53920;51.094;5.902;2022-12-10T12:44:00;3.63;68.01
67005;HTU21D;53920;51.094;5.902;2022-12-10T12:46:48;3.57;68.28
67005;HTU21D;53920;51.094;5.902;2022-12-10T12:54:42;3.46;68.40
67005;HTU21D;53920;51.094;5.902;2022-12-10T12:57:17;3.42;68.66
67005;HTU21D;53920;51.094;5.902;2022-12-10T13:00:03;3.08;68.94
67005;HTU21D;53920;51.094;5.902;2022-12-10T13:05:37;2.49;70.67
67005;HTU21D;53920;51.094;5.902;2022-12-10T13:15:49;2.89;70.84
67005;HTU21D;53920;51.094;5.902;2022-12-10T13:20:46;3.02;70.74
67005;HTU21D;53920;51.094;5.902;2022-12-10T13:28:27;3.20;69.81
67005;HTU21D;53920;51.094;5.902;2022-12-10T13:36:35;2.40;71.24
67005;HTU21D;53920;51.094;5.902;2022-12-10T13:41:34;2.19;72.11
67005;HTU21D;53920;51.094;5.902;2022-12-10T13:44:48;2.20;72.28
67005;HTU21D;53920;51.094;5.902;2022-12-10T13:47:27;2.16;72.54
67005;HTU21D;53920;51.094;5.902;2022-12-10T13:49:59;2.25;72.64
67005;HTU21D;53920;51.094;5.902;2022-12-10T14:00:35;2.29;73.03
67005;HTU21D;53920;51.094;5.902;2022-12-10T14:06:05;2.56;72.68
67005;HTU21D;53920;51.094;5.902;2022-12-10T14:08:38;2.73;72.37
67005;HTU21D;53920;51.094;5.902;2022-12-10T14:11:19;2.74;72.05
67005;HTU21D;53920;51.094;5.902;2022-12-10T14:13:53;2.75;72.21
67005;HTU21D;53920;51.094;5.902;2022-12-10T14:16:22;2.83;71.88
67005;HTU21D;53920;51.094;5.902;2022-12-10T14:19:03;2.91;71.77
67005;HTU21D;53920;51.094;5.902;2022-12-10T14:21:36;2.99;71.55
67005;HTU21D;53920;51.094;5.902;2022-12-10T14:24:05;2.99;71.35
67005;HTU21D;53920;51.094;5.902;2022-12-10T14:26:35;2.94;71.24
67005;HTU21D;53920;51.094;5.902;2022-12-10T14:31:44;2.90;71.37
67005;HTU21D;53920;51.094;5.902;2022-12-10T14:34:15;2.96;71.26
67005;HTU21D;53920;51.094;5.902;2022-12-10T14:36:49;2.86;71.02
67005;HTU21D;53920;51.094;5.902;2022-12-10T14:39:22;2.65;71.32
67005;HTU21D;53920;51.094;5.902;2022-12-10T14:41:53;2.43;71.99
67005;HTU21D;53920;51.094;5.902;2022-12-10T14:44:21;2.37;72.24
67005;HTU21D;53920;51.094;5.902;2022-12-10T14:46:49;2.20;72.45
67005;HTU21D;53920;51.094;5.902;2022-12-10T14:49:19;2.07;72.84
67005;HTU21D;53920;51.094;5.902;2022-12-10T14:51:46;1.90;73.29
67005;HTU21D;53920;51.094;5.902;2022-12-10T14:54:33;1.82;73.92
67005;HTU21D;53920;51.094;5.902;2022-12-10T14:57:13;1.86;74.00
67005;HTU21D;53920;51.094;5.902;2022-12-10T15:02:20;1.75;74.23
67005;HTU21D;53920;51.094;5.902;2022-12-10T15:04:48;1.70;74.42
67005;HTU21D;53920;51.094;5.902;2022-12-10T15:07:19;1.61;74.78
67005;HTU21D;53920;51.094;5.902;2022-12-10T15:09:47;1.63;74.92
67005;HTU21D;53920;51.094;5.902;2022-12-10T15:12:37;1.69;74.87
67005;HTU21D;53920;51.094;5.902;2022-12-10T15:28:30;1.56;75.89
67005;HTU21D;53920;51.094;5.902;2022-12-10T15:34:05;1.67;75.96
67005;HTU21D;53920;51.094;5.902;2022-12-10T15:36:37;1.64;75.89
67005;HTU21D;53920;51.094;5.902;2022-12-10T15:41:45;1.56;75.77
67005;HTU21D;53920;51.094;5.902;2022-12-10T15:49:24;1.32;76.39
67005;HTU21D;53920;51.094;5.902;2022-12-10T15:51:50;1.29;76.55
67005;HTU21D;53920;51.094;5.902;2022-12-10T15:56:53;1.31;76.95
67005;HTU21D;53920;51.094;5.902;2022-12-10T15:59:19;1.34;76.79
67005;HTU21D;53920;51.094;5.902;2022-12-10T16:01:45;1.33;76.92
67005;HTU21D;53920;51.094;5.902;2022-12-10T16:04:11;1.33;77.13
67005;HTU21D;53920;51.094;5.902;2022-12-10T16:06:37;1.33;76.92
67005;HTU21D;53920;51.094;5.902;2022-12-10T16:09:03;1.35;76.98
67005;HTU21D;53920;51.094;5.902;2022-12-10T16:11:29;1.38;77.21
67005;HTU21D;53920;51.094;5.902;2022-12-10T16:13:56;1.49;77.05
67005;HTU21D;53920;51.094;5.902;2022-12-10T16:16:23;1.56;76.77
67005;HTU21D;53920;51.094;5.902;2022-12-10T16:18:50;1.55;76.80
67005;HTU21D;53920;51.094;5.902;2022-12-10T16:21:16;1.53;76.74
67005;HTU21D;53920;51.094;5.902;2022-12-10T16:23:43;1.52;77.04
67005;HTU21D;53920;51.094;5.902;2022-12-10T16:26:20;1.61;76.90
67005;HTU21D;53920;51.094;5.902;2022-12-10T16:28:48;1.69;76.47
67005;HTU21D;53920;51.094;5.902;2022-12-10T16:31:17;1.65;76.77
67005;HTU21D;53920;51.094;5.902;2022-12-10T16:33:43;1.72;76.60
67005;HTU21D;53920;51.094;5.902;2022-12-10T16:36:11;1.73;76.41
67005;HTU21D;53920;51.094;5.902;2022-12-10T16:38:38;1.73;76.38
67005;HTU21D;53920;51.094;5.902;2022-12-10T16:41:23;1.68;76.60
67005;HTU21D;53920;51.094;5.902;2022-12-10T16:43:50;1.69;76.70
67005;HTU21D;53920;51.094;5.902;2022-12-10T16:46:16;1.75;76.77
67005;HTU21D;53920;51.094;5.902;2022-12-10T16:48:42;1.79;76.69
67005;HTU21D;53920;51.094;5.902;2022-12-10T16:51:23;1.80;76.57
67005;HTU21D;53920;51.094;5.902;2022-12-10T16:53:50;1.79;76.63
67005;HTU21D;53920;51.094;5.902;2022-12-10T16:56:16;1.78;76.60
67005;HTU21D;53920;51.094;5.902;2022-12-10T16:58:43;1.69;76.85
67005;HTU21D;53920;51.094;5.902;2022-12-10T17:01:25;1.72;76.88
67005;HTU21D;53920;51.094;5.902;2022-12-10T17:03:54;1.66;77.10
67005;HTU21D;53920;51.094;5.902;2022-12-10T17:06:21;1.69;77.18
67005;HTU21D;53920;51.094;5.902;2022-12-10T17:08:48;1.79;76.96
67005;HTU21D;53920;51.094;5.902;2022-12-10T17:11:24;1.72;76.98
67005;HTU21D;53920;51.094;5.902;2022-12-10T17:14:21;1.66;77.29
67005;HTU21D;53920;51.094;5.902;2022-12-10T17:16:49;1.71;77.40
67005;HTU21D;53920;51.094;5.902;2022-12-10T17:19:15;1.81;77.19
67005;HTU21D;53920;51.094;5.902;2022-12-10T17:21:41;1.81;77.21
67005;HTU21D;53920;51.094;5.902;2022-12-10T17:24:07;1.79;77.05
67005;HTU21D;53920;51.094;5.902;2022-12-10T17:26:37;1.80;76.90
67005;HTU21D;53920;51.094;5.902;2022-12-10T17:29:06;1.75;77.27
67005;HTU21D;53920;51.094;5.902;2022-12-10T17:31:34;1.84;77.36
67005;HTU21D;53920;51.094;5.902;2022-12-10T17:34:00;1.90;77.16
67005;HTU21D;53920;51.094;5.902;2022-12-10T17:36:27;1.92;77.00
67005;HTU21D;53920;51.094;5.902;2022-12-10T17:38:53;2.03;77.04
67005;HTU21D;53920;51.094;5.902;2022-12-10T17:41:18;2.15;76.67
67005;HTU21D;53920;51.094;5.902;2022-12-10T17:43:45;2.16;76.62
67005;HTU21D;53920;51.094;5.902;2022-12-10T17:46:12;2.26;76.60
67005;HTU21D;53920;51.094;5.902;2022-12-10T17:48:39;2.35;76.45
67005;HTU21D;53920;51.094;5.902;2022-12-10T17:51:05;2.38;76.09
67005;HTU21D;53920;51.094;5.902;2022-12-10T17:53:31;2.31;75.88
67005;HTU21D;53920;51.094;5.902;2022-12-10T17:55:59;2.25;76.12
67005;HTU21D;53920;51.094;5.902;2022-12-10T17:58:26;2.27;76.17
67005;HTU21D;53920;51.094;5.902;2022-12-10T18:00:54;2.32;76.15
67005;HTU21D;53920;51.094;5.902;2022-12-10T18:03:20;2.45;76.12
67005;HTU21D;53920;51.094;5.902;2022-12-10T18:05:46;2.51;75.93
67005;HTU21D;53920;51.094;5.902;2022-12-10T18:08:16;2.50;75.86
67005;HTU21D;53920;51.094;5.902;2022-12-10T18:10:48;2.45;75.87
67005;HTU21D;53920;51.094;5.902;2022-12-10T18:13:15;2.40;75.83
67005;HTU21D;53920;51.094;5.902;2022-12-10T18:15:41;2.40;75.87
67005;HTU21D;53920;51.094;5.902;2022-12-10T18:18:09;2.47;75.73
67005;HTU21D;53920;51.094;5.902;2022-12-10T18:20:38;2.53;75.60
67005;HTU21D;53920;51.094;5.902;2022-12-10T18:23:08;2.59;75.40
67005;HTU21D;53920;51.094;5.902;2022-12-10T18:25:36;2.62;75.10
67005;HTU21D;53920;51.094;5.902;2022-12-10T18:28:41;2.65;75.06
67005;HTU21D;53920;51.094;5.902;2022-12-10T18:31:19;2.49;75.06
67005;HTU21D;53920;51.094;5.902;2022-12-10T18:33:49;2.26;75.56
67005;HTU21D;53920;51.094;5.902;2022-12-10T18:36:22;2.23;75.69